createdAt,value
2023-04-10T00:01:54.083Z,9.80
2023-04-10T00:04:22.416Z,9.70
2023-04-10T00:06:50.012Z,9.70
2023-04-10T00:09:17.452Z,10.00
2023-04-10T00:11:45.698Z,9.70
2023-04-10T00:14:13.236Z,9.90
2023-04-10T00:16:40.958Z,9.70
2023-04-10T00:19:09.033Z,9.60
2023-04-10T00:21:36.583Z,9.70
2023-04-10T00:24:06.260Z,9.60
2023-04-10T00:26:34.854Z,9.50
2023-04-10T00:29:03.479Z,9.50
2023-04-10T00:31:31.933Z,9.60
2023-04-10T00:33:59.499Z,9.60
2023-04-10T00:36:28.167Z,9.50
2023-04-10T00:38:55.769Z,9.60
2023-04-10T00:41:24.305Z,9.80
2023-04-10T00:43:59.090Z,9.70
2023-04-10T00:46:27.779Z,9.90
2023-04-10T00:48:56.516Z,10.00
2023-04-10T00:51:24.186Z,9.90
2023-04-10T00:53:52.904Z,9.90
2023-04-10T00:56:21.070Z,9.80
2023-04-10T00:58:50.988Z,9.90
2023-04-10T01:01:19.267Z,9.60
2023-04-10T01:03:47.339Z,9.90
2023-04-10T01:06:23.985Z,9.50
2023-04-10T01:09:11.028Z,9.60
2023-04-10T01:11:52.939Z,9.90
2023-04-10T01:14:39.110Z,9.70
2023-04-10T01:17:17.451Z,9.60
2023-04-10T01:20:24.222Z,9.60
2023-04-10T01:23:19.630Z,9.90
2023-04-10T01:26:01.521Z,9.90
2023-04-10T01:29:08.778Z,9.70
2023-04-10T01:31:42.340Z,9.70
2023-04-10T01:34:15.879Z,9.70
2023-04-10T01:36:58.064Z,9.60
2023-04-10T01:39:28.352Z,9.70
2023-04-10T01:41:59.900Z,9.60
2023-04-10T01:44:32.067Z,9.70
2023-04-10T01:47:03.266Z,9.90
2023-04-10T01:49:31.894Z,9.90
2023-04-10T01:52:01.263Z,9.40
2023-04-10T01:54:31.222Z,9.50
2023-04-10T01:57:04.271Z,9.60
2023-04-10T01:59:31.985Z,9.60
2023-04-10T02:02:01.519Z,9.30
2023-04-10T02:04:29.278Z,9.30
2023-04-10T02:07:14.314Z,9.60
2023-04-10T02:09:58.823Z,9.40
2023-04-10T02:12:32.358Z,9.30
2023-04-10T02:15:08.798Z,9.30
2023-04-10T02:17:37.733Z,9.50
2023-04-10T02:20:08.036Z,9.20
2023-04-10T02:22:36.739Z,9.10
2023-04-10T02:25:06.457Z,9.30
2023-04-10T02:27:35.717Z,9.20
2023-04-10T02:30:05.232Z,9.20
2023-04-10T02:32:33.881Z,9.10
2023-04-10T02:35:04.492Z,9.20
2023-04-10T02:37:33.089Z,9.40
2023-04-10T02:40:00.886Z,9.20
2023-04-10T02:42:28.466Z,9.50
2023-04-10T02:44:56.991Z,9.20
2023-04-10T02:47:24.799Z,9.30
2023-04-10T02:49:52.833Z,9.60
2023-04-10T02:52:20.315Z,9.60
2023-04-10T02:54:47.845Z,9.20
2023-04-10T02:57:16.531Z,9.20
2023-04-10T02:59:45.199Z,9.50
2023-04-10T03:02:12.712Z,9.30
2023-04-10T03:04:40.199Z,9.40
2023-04-10T03:07:07.660Z,9.30
2023-04-10T03:09:35.421Z,9.40
2023-04-10T03:12:04.287Z,9.30
2023-04-10T03:14:31.751Z,9.50
2023-04-10T03:16:59.212Z,9.50
2023-04-10T03:19:27.055Z,9.50
2023-04-10T03:21:54.503Z,9.60
2023-04-10T03:24:21.953Z,9.60
2023-04-10T03:26:49.404Z,9.70
2023-04-10T03:29:19.261Z,9.70
2023-04-10T03:31:46.884Z,9.70
2023-04-10T03:34:14.397Z,9.60
2023-04-10T03:36:42.138Z,9.60
2023-04-10T03:39:10.274Z,9.70
2023-04-10T03:41:37.766Z,9.70
2023-04-10T03:44:05.647Z,9.60
2023-04-10T03:46:33.143Z,9.60
2023-04-10T03:49:00.799Z,9.70
2023-04-10T03:51:28.399Z,9.70
2023-04-10T03:53:56.216Z,9.70
2023-04-10T03:56:23.946Z,9.90
2023-04-10T03:58:51.440Z,9.80
2023-04-10T04:01:18.964Z,9.70
2023-04-10T04:03:46.644Z,9.60
2023-04-10T04:06:14.261Z,9.60
2023-04-10T04:08:41.872Z,9.60
2023-04-10T04:11:09.412Z,9.80
2023-04-10T04:13:36.840Z,10.00
2023-04-10T04:16:04.793Z,9.90
2023-04-10T04:18:32.271Z,9.90
2023-04-10T04:20:59.778Z,9.90
2023-04-10T04:23:27.237Z,9.80
2023-04-10T04:25:56.463Z,10.10
2023-04-10T04:28:24.034Z,10.30
2023-04-10T04:30:52.027Z,10.40
2023-04-10T04:33:19.646Z,10.50
2023-04-10T04:35:47.227Z,10.70
2023-04-10T04:38:16.956Z,10.20
2023-04-10T04:40:44.440Z,10.20
2023-04-10T04:43:11.940Z,10.40
2023-04-10T04:45:39.485Z,10.40
2023-04-10T04:48:07.093Z,10.60
2023-04-10T04:50:34.832Z,10.60
2023-04-10T04:53:02.380Z,10.50
2023-04-10T04:55:29.951Z,10.60
2023-04-10T04:57:57.569Z,10.80
2023-04-10T05:00:25.056Z,10.90
2023-04-10T05:02:52.796Z,11.00
2023-04-10T05:05:20.482Z,11.20
2023-04-10T05:07:48.033Z,11.20
2023-04-10T05:10:15.866Z,11.30
2023-04-10T05:12:45.661Z,11.40
2023-04-10T05:15:13.118Z,11.60
2023-04-10T05:17:40.696Z,11.60
2023-04-10T05:20:09.062Z,12.00
2023-04-10T05:22:36.608Z,12.20
2023-04-10T05:25:04.360Z,12.10
2023-04-10T05:27:31.806Z,12.20
2023-04-10T05:30:02.317Z,12.10
2023-04-10T05:32:31.041Z,12.60
2023-04-10T05:34:58.710Z,13.00
2023-04-10T05:37:30.191Z,13.60
2023-04-10T05:39:57.671Z,13.60
2023-04-10T05:42:25.320Z,13.40
2023-04-10T05:44:53.302Z,13.30
2023-04-10T05:47:20.847Z,13.60
2023-04-10T05:49:48.356Z,13.40
2023-04-10T05:52:15.875Z,13.10
2023-04-10T05:54:43.289Z,13.20
2023-04-10T05:57:10.920Z,13.90
2023-04-10T05:59:38.377Z,14.50
2023-04-10T06:02:06.487Z,14.40
2023-04-10T06:04:34.230Z,15.10
2023-04-10T06:07:01.922Z,14.60
2023-04-10T06:09:29.448Z,13.50
2023-04-10T06:11:56.981Z,13.00
2023-04-10T06:14:24.540Z,12.90
2023-04-10T06:16:51.996Z,12.80
2023-04-10T06:19:19.441Z,12.70
2023-04-10T06:21:47.182Z,12.70
2023-04-10T06:24:15.947Z,12.80
2023-04-10T06:26:43.404Z,12.70
2023-04-10T06:29:11.030Z,12.70
2023-04-10T06:31:38.608Z,12.60
2023-04-10T06:34:06.386Z,12.70
2023-04-10T06:36:33.974Z,13.00
2023-04-10T06:39:02.928Z,12.80
2023-04-10T06:41:30.617Z,12.80
2023-04-10T06:43:58.861Z,12.70
2023-04-10T06:46:28.323Z,12.90
2023-04-10T06:48:56.434Z,12.90
2023-04-10T06:51:24.230Z,13.00
2023-04-10T06:53:51.740Z,13.00
2023-04-10T06:56:19.161Z,12.70
2023-04-10T06:58:46.574Z,12.70
2023-04-10T07:01:14.224Z,13.00
2023-04-10T07:03:41.867Z,12.60
2023-04-10T07:06:11.491Z,12.90
2023-04-10T07:08:38.915Z,13.10
2023-04-10T07:11:08.997Z,12.50
2023-04-10T07:13:39.008Z,12.70
2023-04-10T07:16:08.718Z,12.70
2023-04-10T07:18:38.713Z,12.70
2023-04-10T07:21:12.757Z,12.90
2023-04-10T07:23:41.093Z,13.10
2023-04-10T07:26:08.841Z,12.80
2023-04-10T07:28:39.141Z,12.70
2023-04-10T07:31:08.213Z,12.80
2023-04-10T07:33:36.645Z,13.00
2023-04-10T07:36:06.159Z,13.30
2023-04-10T07:38:33.944Z,13.20
2023-04-10T07:41:01.563Z,12.90
2023-04-10T07:43:31.313Z,13.20
2023-04-10T07:45:58.795Z,13.40
2023-04-10T07:48:26.501Z,13.10
2023-04-10T07:50:54.085Z,12.90
2023-04-10T07:53:21.552Z,12.90
2023-04-10T07:55:50.491Z,13.30
2023-04-10T07:58:18.016Z,13.50
2023-04-10T08:00:46.043Z,13.20
2023-04-10T08:03:16.202Z,13.00
2023-04-10T08:05:43.832Z,13.10
2023-04-10T08:08:11.358Z,13.20
2023-04-10T08:10:39.630Z,13.20
2023-04-10T08:13:07.330Z,13.20
2023-04-10T08:15:34.949Z,13.00
2023-04-10T08:18:02.473Z,13.00
2023-04-10T08:20:30.168Z,13.00
2023-04-10T08:23:01.014Z,12.90
2023-04-10T08:25:40.459Z,12.80
2023-04-10T08:28:07.995Z,13.20
2023-04-10T08:30:35.525Z,13.40
2023-04-10T08:33:03.174Z,13.00
2023-04-10T08:35:30.746Z,13.50
2023-04-10T08:38:12.552Z,13.50
2023-04-10T08:40:45.224Z,13.40
2023-04-10T08:43:12.783Z,13.70
2023-04-10T08:45:41.891Z,14.30
2023-04-10T08:48:11.503Z,14.90
2023-04-10T08:50:43.794Z,17.10
2023-04-10T08:53:15.826Z,17.70
2023-04-10T08:55:46.062Z,20.20
2023-04-10T08:58:14.207Z,20.10
2023-04-10T09:00:41.752Z,21.20
2023-04-10T09:03:12.188Z,16.00
2023-04-10T09:05:39.928Z,14.90
2023-04-10T09:08:11.309Z,15.10
2023-04-10T09:10:39.541Z,15.50
2023-04-10T09:13:07.171Z,15.20
2023-04-10T09:16:01.531Z,15.30
2023-04-10T09:18:52.441Z,15.60
2023-04-10T09:21:21.921Z,16.20
2023-04-10T09:23:50.072Z,15.00
2023-04-10T09:26:32.659Z,14.70
2023-04-10T09:29:52.838Z,14.00
2023-04-10T09:32:40.890Z,14.10
2023-04-10T09:35:38.157Z,14.00
2023-04-10T09:38:19.538Z,14.30
2023-04-10T09:40:48.394Z,15.00
2023-04-10T09:43:33.781Z,15.20
2023-04-10T09:46:01.438Z,14.80
2023-04-10T09:48:29.033Z,14.70
2023-04-10T09:50:57.984Z,16.50
2023-04-10T09:53:26.153Z,15.70
2023-04-10T09:55:53.796Z,14.90
2023-04-10T09:58:22.746Z,18.00
2023-04-10T10:00:50.785Z,18.60
2023-04-10T10:03:21.554Z,15.00
2023-04-10T10:05:52.942Z,15.70
2023-04-10T10:08:21.829Z,15.60
2023-04-10T10:10:53.364Z,16.30
2023-04-10T10:13:49.166Z,16.40
2023-04-10T10:16:26.417Z,16.50
2023-04-10T10:19:12.767Z,17.00
2023-04-10T10:21:42.476Z,15.70
2023-04-10T10:24:10.477Z,15.60
2023-04-10T10:26:40.450Z,17.60
2023-04-10T10:29:13.656Z,16.60
2023-04-10T10:31:41.564Z,14.90
2023-04-10T10:34:09.905Z,16.70
2023-04-10T10:36:38.289Z,18.60
2023-04-10T10:39:24.474Z,19.90
2023-04-10T10:42:20.795Z,18.10
2023-04-10T10:45:07.172Z,17.30
2023-04-10T10:47:40.605Z,19.10
2023-04-10T10:50:08.392Z,18.80
2023-04-10T10:52:51.360Z,21.10
2023-04-10T10:55:40.130Z,19.90
2023-04-10T10:58:09.296Z,18.30
2023-04-10T11:00:52.122Z,17.60
2023-04-10T11:03:19.958Z,18.60
2023-04-10T11:06:07.753Z,18.40
2023-04-10T11:08:36.276Z,20.10
2023-04-10T11:11:28.140Z,22.60
2023-04-10T11:13:58.377Z,22.30
2023-04-10T11:16:33.302Z,19.30
2023-04-10T11:22:09.085Z,19.40
2023-04-10T11:25:03.608Z,19.70
2023-04-10T11:27:45.750Z,18.30
2023-04-10T11:30:34.685Z,18.80
2023-04-10T11:33:03.203Z,23.00
2023-04-10T11:35:32.101Z,22.10
2023-04-10T11:38:10.549Z,19.40
2023-04-10T11:41:01.947Z,21.90
2023-04-10T11:43:29.868Z,21.40
2023-04-10T11:46:01.838Z,23.80
2023-04-10T11:48:30.169Z,19.60
2023-04-10T11:50:58.040Z,20.60
2023-04-10T11:53:27.003Z,20.70
2023-04-10T11:55:57.868Z,20.70
2023-04-10T11:58:30.818Z,19.20
2023-04-10T12:01:02.457Z,17.20
2023-04-10T12:03:42.061Z,17.00
2023-04-10T12:06:12.566Z,17.60
2023-04-10T12:08:49.786Z,18.80
2023-04-10T12:11:25.789Z,18.70
2023-04-10T12:13:55.120Z,18.70
2023-04-10T12:16:27.581Z,17.80
2023-04-10T12:18:56.237Z,17.10
2023-04-10T12:21:26.626Z,17.00
2023-04-10T12:23:54.064Z,16.20
2023-04-10T12:26:21.807Z,16.70
2023-04-10T12:28:58.147Z,16.50
2023-04-10T12:31:33.909Z,16.20
2023-04-10T12:34:02.614Z,15.70
2023-04-10T12:36:32.346Z,16.20
2023-04-10T12:39:04.243Z,15.50
2023-04-10T12:41:34.493Z,15.80
2023-04-10T12:44:13.070Z,16.50
2023-04-10T12:46:41.907Z,15.50
2023-04-10T12:49:19.102Z,15.20
2023-04-10T12:51:47.699Z,15.40
2023-04-10T12:54:35.989Z,15.50
2023-04-10T12:57:04.510Z,14.90
2023-04-10T12:59:32.190Z,13.90
2023-04-10T13:02:00.041Z,13.80
2023-04-10T13:04:29.307Z,13.80
2023-04-10T13:06:57.318Z,13.80
2023-04-10T13:09:24.798Z,13.60
2023-04-10T13:11:57.924Z,13.40
2023-04-10T13:14:25.239Z,13.20
2023-04-10T13:16:52.694Z,13.30
2023-04-10T13:19:20.429Z,13.20
2023-04-10T13:21:52.917Z,13.10
2023-04-10T13:24:20.497Z,12.80
2023-04-10T13:26:48.025Z,13.00
2023-04-10T13:29:15.673Z,13.00
2023-04-10T13:31:43.176Z,12.90
2023-04-10T13:34:10.688Z,13.00
2023-04-10T13:36:38.819Z,12.80
2023-04-10T13:39:06.504Z,12.70
2023-04-10T13:41:34.328Z,13.20
2023-04-10T13:44:01.892Z,13.00
2023-04-10T13:46:29.552Z,12.80
2023-04-10T13:48:58.018Z,12.80
2023-04-10T13:51:28.462Z,12.60
2023-04-10T13:53:58.335Z,12.60
2023-04-10T13:56:25.943Z,12.90
2023-04-10T13:58:53.569Z,12.60
2023-04-10T14:01:27.357Z,12.70
2023-04-10T14:03:55.035Z,13.00
2023-04-10T14:06:22.730Z,13.20
2023-04-10T14:08:50.369Z,13.50
2023-04-10T14:11:17.835Z,13.20
2023-04-10T14:13:45.256Z,12.90
2023-04-10T14:16:12.973Z,13.00
2023-04-10T14:18:40.946Z,12.70
2023-04-10T14:21:11.552Z,12.80
2023-04-10T14:23:41.071Z,12.90
2023-04-10T14:26:08.674Z,12.80
2023-04-10T14:28:36.377Z,12.40
2023-04-10T14:31:05.599Z,12.60
2023-04-10T14:33:33.077Z,13.00
2023-04-10T14:36:00.775Z,13.00
2023-04-10T14:38:28.258Z,13.00
2023-04-10T14:40:55.969Z,13.10
2023-04-10T14:43:23.434Z,12.70
2023-04-10T14:45:51.106Z,12.60
2023-04-10T14:48:20.075Z,12.50
2023-04-10T14:50:49.639Z,12.60
2023-04-10T14:53:22.529Z,12.80
2023-04-10T14:55:50.129Z,12.70
2023-04-10T14:58:17.760Z,12.60
2023-04-10T15:00:45.496Z,12.40
2023-04-10T15:03:13.317Z,12.20
2023-04-10T15:05:41.048Z,12.30
2023-04-10T15:08:08.682Z,12.10
2023-04-10T15:10:36.176Z,12.20
2023-04-10T15:13:03.728Z,12.60
2023-04-10T15:15:32.951Z,13.00
2023-04-10T15:18:00.478Z,12.70
2023-04-10T15:20:28.019Z,12.10
2023-04-10T15:22:55.497Z,12.10
2023-04-10T15:25:22.951Z,12.10
2023-04-10T15:27:50.440Z,11.90
2023-04-10T15:30:17.964Z,11.90
2023-04-10T15:32:45.554Z,12.00
2023-04-10T15:35:13.117Z,11.80
2023-04-10T15:37:40.704Z,12.00
2023-04-10T15:40:08.834Z,11.90
2023-04-10T15:42:36.900Z,11.80
2023-04-10T15:45:04.796Z,11.80
2023-04-10T15:47:36.144Z,11.80
2023-04-10T15:50:04.851Z,11.70
2023-04-10T15:52:34.118Z,11.70
2023-04-10T15:55:01.722Z,11.70
2023-04-10T15:57:29.236Z,11.70
2023-04-10T15:59:59.077Z,11.60
2023-04-10T16:02:27.215Z,11.80
2023-04-10T16:04:54.917Z,11.80
2023-04-10T16:07:22.436Z,11.70
2023-04-10T16:09:52.541Z,11.80
2023-04-10T16:12:20.191Z,12.00
2023-04-10T16:14:47.631Z,11.80
2023-04-10T16:17:15.400Z,11.90
2023-04-10T16:19:42.940Z,11.50
2023-04-10T16:22:10.704Z,11.50
2023-04-10T16:24:38.252Z,11.50
2023-04-10T16:27:08.391Z,11.60
2023-04-10T16:29:36.365Z,11.60
2023-04-10T16:32:04.108Z,11.60
2023-04-10T16:34:31.570Z,11.80
2023-04-10T16:36:59.066Z,11.80
2023-04-10T16:39:26.610Z,11.90
2023-04-10T16:41:54.332Z,12.00
2023-04-10T16:44:21.857Z,12.10
2023-04-10T16:46:49.446Z,11.80
2023-04-10T16:49:17.049Z,11.80
2023-04-10T16:51:44.844Z,11.70
2023-04-10T16:54:12.395Z,11.60
2023-04-10T16:56:39.934Z,11.60
2023-04-10T16:59:07.481Z,11.60
2023-04-10T17:01:39.984Z,11.70
2023-04-10T17:04:08.412Z,11.60
2023-04-10T17:06:36.587Z,11.20
2023-04-10T17:09:04.192Z,11.00
2023-04-10T17:11:31.988Z,11.40
2023-04-10T17:13:59.523Z,11.80
2023-04-10T17:16:26.991Z,11.40
2023-04-10T17:18:54.708Z,11.50
2023-04-10T17:21:22.393Z,11.40
2023-04-10T17:23:50.261Z,11.50
2023-04-10T17:26:17.872Z,11.70
2023-04-10T17:28:46.790Z,11.80
2023-04-10T17:31:18.045Z,11.80
2023-04-10T17:33:45.729Z,11.30
2023-04-10T17:36:13.924Z,11.10
2023-04-10T17:38:42.785Z,11.10
2023-04-10T17:41:16.284Z,11.10
2023-04-10T17:43:43.811Z,11.20
2023-04-10T17:46:17.677Z,11.20
2023-04-10T17:48:46.172Z,11.30
2023-04-10T17:51:13.714Z,11.30
2023-04-10T17:53:41.511Z,10.90
2023-04-10T17:56:09.111Z,10.90
2023-04-10T17:58:36.606Z,10.90
2023-04-10T18:01:04.189Z,10.80
2023-04-10T18:03:31.785Z,10.60
2023-04-10T18:05:59.978Z,10.40
2023-04-10T18:08:29.761Z,10.50
2023-04-10T18:10:57.379Z,10.50
2023-04-10T18:13:24.995Z,10.50
2023-04-10T18:15:52.633Z,10.60
2023-04-10T18:18:20.068Z,10.50
2023-04-10T18:20:47.840Z,10.40
2023-04-10T18:23:15.374Z,10.60
2023-04-10T18:25:42.831Z,10.60
2023-04-10T18:28:14.994Z,10.70
2023-04-10T18:30:44.233Z,10.50
2023-04-10T18:33:11.886Z,10.50
2023-04-10T18:35:39.924Z,10.60
2023-04-10T18:38:07.504Z,10.50
2023-04-10T18:40:37.041Z,10.30
2023-04-10T18:43:04.628Z,10.20
2023-04-10T18:45:34.479Z,10.20
2023-04-10T18:48:02.710Z,10.30
2023-04-10T18:50:33.961Z,10.30
2023-04-10T18:53:01.552Z,10.50
2023-04-10T18:55:29.016Z,10.40
2023-04-10T18:57:56.564Z,10.30
2023-04-10T19:00:24.256Z,10.30
2023-04-10T19:02:51.882Z,10.40
2023-04-10T19:05:19.521Z,10.40
2023-04-10T19:08:00.571Z,10.20
2023-04-10T19:10:31.070Z,10.30
2023-04-10T19:12:58.652Z,10.30
2023-04-10T19:15:26.196Z,10.30
2023-04-10T19:17:54.769Z,10.50
2023-04-10T19:20:50.809Z,10.40
2023-04-10T19:23:10.507Z,10.30
2023-04-10T19:25:41.875Z,10.20
2023-04-10T19:28:09.416Z,10.10
2023-04-10T19:30:37.074Z,10.10
2023-04-10T19:33:04.651Z,10.10
2023-04-10T19:35:32.179Z,10.00
2023-04-10T19:37:59.669Z,10.10
2023-04-10T19:40:27.210Z,10.20
2023-04-10T19:42:54.686Z,10.50
2023-04-10T19:45:24.018Z,10.60
2023-04-10T19:47:52.197Z,10.20
2023-04-10T19:50:19.974Z,10.00
2023-04-10T19:52:47.646Z,9.90
2023-04-10T19:55:16.956Z,9.70
2023-04-10T19:57:45.791Z,9.60
2023-04-10T20:00:13.759Z,9.50
2023-04-10T20:02:41.690Z,9.40
2023-04-10T20:05:10.088Z,9.40
2023-04-10T20:07:37.588Z,9.40
2023-04-10T20:10:05.488Z,9.40
2023-04-10T20:12:33.478Z,9.30
2023-04-10T20:15:05.007Z,9.30
2023-04-10T20:17:32.612Z,9.30
2023-04-10T20:20:00.169Z,9.40
2023-04-10T20:22:27.836Z,9.50
2023-04-10T20:24:55.295Z,9.60
2023-04-10T20:27:22.814Z,9.60
2023-04-10T20:29:51.001Z,9.60
2023-04-10T20:32:18.470Z,9.50
2023-04-10T20:34:45.978Z,9.40
2023-04-10T20:37:17.547Z,9.30
2023-04-10T20:39:45.020Z,9.30
2023-04-10T20:42:12.523Z,9.20
2023-04-10T20:44:40.088Z,9.20
2023-04-10T20:47:07.839Z,9.30
2023-04-10T20:49:37.699Z,9.40
2023-04-10T20:52:05.904Z,9.60
2023-04-10T20:54:34.042Z,9.60
2023-04-10T20:57:02.057Z,9.60
2023-04-10T20:59:30.303Z,9.60
2023-04-10T21:01:59.432Z,9.70
2023-04-10T21:04:26.985Z,9.70
2023-04-10T21:06:54.491Z,9.70
2023-04-10T21:09:22.006Z,9.60
2023-04-10T21:11:49.646Z,9.40
2023-04-10T21:14:17.118Z,9.40
2023-04-10T21:16:46.116Z,9.40
2023-04-10T21:19:14.175Z,9.40
2023-04-10T21:21:41.853Z,9.40
2023-04-10T21:24:09.337Z,9.30
2023-04-10T21:26:36.887Z,9.40
2023-04-10T21:29:04.363Z,9.40
2023-04-10T21:31:31.916Z,9.40
2023-04-10T21:33:59.452Z,9.30
2023-04-10T21:36:26.891Z,9.20
2023-04-10T21:38:54.405Z,9.40
2023-04-10T21:41:22.215Z,9.70
2023-04-10T21:43:49.679Z,9.90
2023-04-10T21:46:17.222Z,9.70
2023-04-10T21:48:44.756Z,9.50
2023-04-10T21:51:12.286Z,9.60
2023-04-10T21:53:39.771Z,9.40
2023-04-10T21:56:07.618Z,9.20
2023-04-10T21:58:35.150Z,9.30
2023-04-10T22:01:02.756Z,9.40
2023-04-10T22:03:33.422Z,9.50
2023-04-10T22:06:01.499Z,9.70
2023-04-10T22:08:29.126Z,9.60
2023-04-10T22:10:56.678Z,9.60
2023-04-10T22:13:30.831Z,9.60
2023-04-10T22:16:00.277Z,9.70
2023-04-10T22:18:27.734Z,9.70
2023-04-10T22:20:55.491Z,9.60
2023-04-10T22:23:23.129Z,9.70
2023-04-10T22:25:50.920Z,9.70
2023-04-10T22:28:18.518Z,9.70
2023-04-10T22:30:46.133Z,9.70
2023-04-10T22:33:13.691Z,9.60
2023-04-10T22:35:41.201Z,9.40
2023-04-10T22:38:09.401Z,9.40
2023-04-10T22:40:36.971Z,9.40
2023-04-10T22:43:04.493Z,9.50
2023-04-10T22:45:32.031Z,9.50
2023-04-10T22:47:59.602Z,9.40
2023-04-10T22:50:27.279Z,9.50
2023-04-10T22:52:54.743Z,9.50
2023-04-10T22:55:22.343Z,9.60
2023-04-10T22:57:49.839Z,9.40
2023-04-10T23:00:18.742Z,9.40
2023-04-10T23:02:46.486Z,9.40
2023-04-10T23:05:14.030Z,9.60
2023-04-10T23:07:41.488Z,9.70
2023-04-10T23:10:09.445Z,9.60
2023-04-10T23:12:37.936Z,9.70
2023-04-10T23:15:06.597Z,9.70
2023-04-10T23:17:34.080Z,9.60
2023-04-10T23:20:01.601Z,9.70
2023-04-10T23:22:29.813Z,9.60
2023-04-10T23:24:57.864Z,9.80
2023-04-10T23:27:25.447Z,9.80
2023-04-10T23:29:53.006Z,9.60
2023-04-10T23:32:20.433Z,9.60
2023-04-10T23:34:47.895Z,9.50
2023-04-10T23:37:15.527Z,9.50
2023-04-10T23:39:42.983Z,9.50
2023-04-10T23:42:10.534Z,9.40
2023-04-10T23:44:37.973Z,9.50
2023-04-10T23:47:06.487Z,9.50
2023-04-10T23:49:36.734Z,9.60
2023-04-10T23:52:04.245Z,9.60
2023-04-10T23:54:31.731Z,9.60
2023-04-10T23:56:59.946Z,9.40
2023-04-10T23:59:27.420Z,9.40
